OITK  Khoy Airport

Add Bookmark

Khoy, Iran

Status IATA
Operational KHY
Latitude Longitude
38° 25' 39" N 44° 58' 24" E
38.427502 44.973598
Local (DST + 5) UTC (GMT + 4)
Sep 17, 2014 03:58 Sep 16, 2014 23:28
Sunrise-Sunset Local UTC
Begin Civil Twilight 06:45 02:15
Sunrise 07:12 02:42
Sunset 07:36 15:06
End Civil Twilight 08:03 15:33

Current Weather

METAR Observed VFR
OITK 161000Z 15010KT 9999 SCT035TCU 29/06 Q1009 Tue, Sep 16, 2014 @ 10:00 UTC
(13 Hours, 28 Minutes ago)
Visual Flight Rules
Wind Visibility Clouds Conditions
150° at 10 knots (19 kph) 10 km or more
  • Scattered at 3,500' AGL
  • No significant weather
Temperatures Readings Precipitation
Current Temp 29°C (84°F)
Dewpoint 6°C (43°F)
Humidity 23%
Altimeter 29.79"Hg
Sea Level Pressure 1009mb
Field Elevation 3631.89'
None Recorded

Additional weather within a 92.6km radius of OITK

Map ICAO Location
OITR 84.8km S (174°)

24 Hour Weather History

Loading
-

24 Hour Weather Graphs

Loading
-

CheckWX.com is intended as a tool to help pilots better visualize weather data. It is not intended as a substitute for an official weather briefing obtained from a Flight Service Station. CheckWX.com does not meet the FAA requirements for an official pre-flight weather briefing. Therefore, it's important that pilots still call and obtain an official FSS pre-flight weather briefing.